Time;durP1;ratioP1;P1;durP2;ratioP2;P2;SDS_P1;SDS_P2;PMS_P1;PMS_P2;Temp;Humidity;BMP_temperature;BMP_pressure;BME280_temperature;BME280_humidity;BME280_pressure;Samples;Min_cycle;Max_cycle;Signal;HPM_P1;HPM_P2
2022/05/08 00:02:19;;;;;;;6.90;3.88;;;;;;;9.48;98.33;98987.91;5063139;28;20126;-70
2022/05/08 00:04:45;;;;;;;7.65;3.55;;;;;;;9.51;98.27;98982.63;5056210;28;20049;-70
2022/05/08 00:07:11;;;;;;;6.32;3.60;;;;;;;9.50;98.17;98991.41;5043498;28;20374;-70
2022/05/08 00:09:37;;;;;;;6.72;3.80;;;;;;;9.50;97.49;98991.41;5043474;28;20022;-70
2022/05/08 00:12:03;;;;;;;6.22;3.88;;;;;;;9.51;97.17;98993.16;5043471;28;20127;-70
2022/05/08 00:14:28;;;;;;;7.90;4.35;;;;;;;9.49;97.84;98989.69;5044488;28;20088;-70
2022/05/08 00:16:54;;;;;;;7.07;4.53;;;;;;;9.42;98.32;98982.72;5043416;28;20351;-70
2022/05/08 00:19:19;;;;;;;7.78;4.75;;;;;;;9.43;98.39;98979.22;5043301;28;20387;-70
2022/05/08 00:21:45;;;;;;;7.68;4.00;;;;;;;9.40;98.49;98979.25;5043579;28;20025;-70
2022/05/08 00:24:10;;;;;;;6.45;4.13;;;;;;;9.27;97.75;98988.97;5056923;28;20066;-70
2022/05/08 00:26:35;;;;;;;10.05;4.00;;;;;;;9.15;98.46;98982.97;5045520;28;20053;-70
2022/05/08 00:29:01;;;;;;;5.80;4.05;;;;;;;9.22;98.82;98989.91;5046777;28;20025;-70
2022/05/08 00:31:27;;;;;;;9.15;3.78;;;;;;;9.28;98.02;98989.88;5054146;28;20025;-70
2022/05/08 00:33:52;;;;;;;5.10;3.90;;;;;;;9.17;97.50;98981.22;5043266;28;20052;-70
2022/05/08 00:36:19;;;;;;;6.45;4.05;;;;;;;9.03;97.17;98986.56;5063133;28;20028;-70
2022/05/08 00:38:44;;;;;;;6.32;3.95;;;;;;;8.98;99.05;98982.25;5066425;28;20057;-70
2022/05/08 00:41:10;;;;;;;9.52;4.00;;;;;;;9.04;98.87;98982.16;5066452;28;20032;-70
2022/05/08 00:43:38;;;;;;;7.75;4.45;;;;;;;9.03;99.17;98977.81;5066431;28;20025;-70
2022/05/08 00:46:05;;;;;;;8.55;4.53;;;;;;;8.97;98.70;98977.84;5066370;28;20033;-70
2022/05/08 00:48:32;;;;;;;7.35;4.65;;;;;;;8.91;99.61;98973.53;5066849;28;20304;-70
2022/05/08 00:50:59;;;;;;;6.35;4.25;;;;;;;8.86;100.00;98974.44;5066251;28;20350;-70
2022/05/08 00:53:27;;;;;;;8.10;4.63;;;;;;;8.70;99.72;98964.06;5058769;28;20091;-70
2022/05/08 00:55:55;;;;;;;7.88;4.85;;;;;;;8.68;100.00;98971.06;5057888;28;20036;-70
2022/05/08 00:58:20;;;;;;;8.27;4.07;;;;;;;8.66;99.52;98971.94;5054372;28;20025;-70
2022/05/08 01:00:46;;;;;;;6.35;4.30;;;;;;;8.68;100.00;98970.19;5064496;28;20025;-70
2022/05/08 01:03:12;;;;;;;7.95;4.57;;;;;;;8.68;99.50;98971.06;5066108;28;20048;-70
2022/05/08 01:05:43;;;;;;;6.68;4.40;;;;;;;8.57;99.26;98972.88;5066200;28;20078;-70
2022/05/08 01:08:12;;;;;;;5.47;3.90;;;;;;;8.61;98.99;98974.59;5066200;28;20092;-70
2022/05/08 01:10:38;;;;;;;5.47;3.88;;;;;;;8.62;99.18;98965.88;5052628;28;20530;-70
2022/05/08 01:13:05;;;;;;;6.50;4.45;;;;;;;8.60;99.47;98972.00;5062861;28;20095;-70
2022/05/08 01:15:39;;;;;;;7.72;3.95;;;;;;;8.52;98.98;98969.41;5064178;28;20029;-70
2022/05/08 01:18:04;;;;;;;7.00;4.00;;;;;;;8.46;99.23;98964.22;5065892;28;20037;-70
2022/05/08 01:20:30;;;;;;;6.90;4.68;;;;;;;8.52;99.06;98963.31;5058220;28;20025;-70
2022/05/08 01:22:55;;;;;;;5.53;4.00;;;;;;;8.45;98.81;98962.47;5056636;28;20037;-70
2022/05/08 01:25:20;;;;;;;8.90;5.10;;;;;;;8.36;98.11;98965.13;5065616;28;20035;-70
2022/05/08 01:27:46;;;;;;;8.55;4.13;;;;;;;8.33;99.16;98957.28;5055286;28;20025;-70
2022/05/08 01:30:11;;;;;;;8.82;3.90;;;;;;;8.23;98.71;98958.19;5053829;28;20024;-70
2022/05/08 01:32:37;;;;;;;6.70;4.28;;;;;;;8.21;98.50;98956.44;5046933;28;20037;-70
2022/05/08 01:35:03;;;;;;;5.88;4.15;;;;;;;8.27;99.12;98946.84;5045775;28;20039;-70
2022/05/08 01:37:28;;;;;;;6.80;4.40;;;;;;;8.22;98.78;98953.84;5058847;28;20021;-70
2022/05/08 01:39:56;;;;;;;5.68;3.72;;;;;;;8.24;99.39;98952.09;5064698;28;20029;-70
2022/05/08 01:42:21;;;;;;;6.45;4.65;;;;;;;8.24;100.00;98944.25;5064987;28;20099;-70
2022/05/08 01:44:46;;;;;;;6.40;4.13;;;;;;;8.12;99.60;98944.25;5052412;28;20194;-70
2022/05/08 01:49:56;;;;;;;8.65;4.95;;;;;;;8.09;98.91;98944.28;5064604;28;20052;-70
2022/05/08 01:52:21;;;;;;;7.53;3.90;;;;;;;7.98;99.78;98943.44;5064826;28;20092;-70
2022/05/08 01:54:47;;;;;;;7.72;5.13;;;;;;;7.97;100.00;98952.19;5049123;28;20032;-70
2022/05/08 01:57:12;;;;;;;10.25;5.07;;;;;;;7.81;100.00;98949.63;5054625;28;20194;-70
2022/05/08 01:59:37;;;;;;;7.22;4.93;;;;;;;7.91;100.00;98949.59;5053248;28;20100;-70
2022/05/08 02:02:03;;;;;;;6.32;4.60;;;;;;;7.93;100.00;98955.69;5064323;28;20096;-70
2022/05/08 02:04:29;;;;;;;10.57;5.00;;;;;;;7.93;100.00;98946.97;5063102;28;20107;-70
2022/05/08 02:06:55;;;;;;;7.45;5.00;;;;;;;7.95;100.00;98953.97;5055986;28;20029;-70
2022/05/08 02:09:20;;;;;;;6.35;4.25;;;;;;;8.00;99.72;98957.41;5045068;28;20351;-70
2022/05/08 02:11:46;;;;;;;7.47;4.80;;;;;;;7.86;99.18;98959.22;5044993;28;20025;-70
2022/05/08 02:14:11;;;;;;;9.80;4.80;;;;;;;7.69;99.52;98958.38;5046129;28;20028;-70
2022/05/08 02:16:36;;;;;;;8.13;4.65;;;;;;;7.57;99.83;98950.59;5050595;28;20036;-70
2022/05/08 02:19:02;;;;;;;9.80;5.60;;;;;;;7.61;100.00;98957.56;5051178;28;20021;-70
2022/05/08 02:21:27;;;;;;;8.50;4.93;;;;;;;7.64;100.00;98954.94;5045069;28;20021;-70
2022/05/08 02:23:53;;;;;;;7.82;4.93;;;;;;;7.65;100.00;98959.28;5045947;28;20395;-70
2022/05/08 02:26:18;;;;;;;8.27;4.57;;;;;;;7.71;99.94;98958.38;5060137;28;20029;-70
2022/05/08 02:28:43;;;;;;;9.15;4.95;;;;;;;7.61;99.10;98957.56;5063860;28;20328;-70
2022/05/08 02:31:09;;;;;;;8.43;4.97;;;;;;;7.59;99.58;98953.22;5055469;28;20028;-70
2022/05/08 02:33:34;;;;;;;14.77;5.97;;;;;;;7.60;100.00;98961.06;5052910;28;20080;-70
2022/05/08 02:36:00;;;;;;;9.10;4.88;;;;;;;7.60;99.80;98960.19;5044760;28;20025;-70
2022/05/08 02:38:25;;;;;;;10.15;4.88;;;;;;;7.42;99.91;98961.09;5063871;28;20021;-70
2022/05/08 02:40:51;;;;;;;8.68;5.45;;;;;;;7.53;99.59;98963.69;5063973;28;20028;-70
2022/05/08 02:43:20;;;;;;;7.40;4.45;;;;;;;7.58;99.19;98957.56;5062233;28;20316;-70
2022/05/08 02:45:46;;;;;;;8.27;4.72;;;;;;;7.35;99.23;98958.47;5062220;28;20028;-70
2022/05/08 02:48:12;;;;;;;7.75;5.22;;;;;;;7.28;100.00;98957.59;5045842;28;20213;-70
2022/05/08 02:50:37;;;;;;;7.30;5.22;;;;;;;7.30;100.00;98961.09;5044542;28;20021;-70
2022/05/08 02:53:03;;;;;;;7.70;5.43;;;;;;;7.31;100.00;98956.75;5055505;28;20044;-70
2022/05/08 03:00:56;;;;;;;12.15;4.47;;;;;;;7.37;100.00;98956.75;5052689;28;20352;-70
2022/05/08 03:03:22;;;;;;;7.47;4.75;;;;;;;7.31;100.00;98965.44;5044596;28;20037;-70
2022/05/08 03:05:48;;;;;;;13.18;5.05;;;;;;;7.30;100.00;98965.44;5058806;28;20025;-70
2022/05/08 03:08:15;;;;;;;9.80;5.07;;;;;;;7.29;100.00;98956.75;5045702;28;20309;-70
2022/05/08 03:13:26;;;;;;;8.80;4.63;;;;;;;7.17;99.83;98962.00;5045222;28;20055;-70
2022/05/08 03:15:51;;;;;;;8.63;5.28;;;;;;;7.09;99.40;98965.50;5061606;28;20259;-70
2022/05/08 03:18:18;;;;;;;16.55;4.32;;;;;;;7.08;100.00;98961.13;5063844;28;20216;-70
2022/05/08 03:20:43;;;;;;;12.27;4.50;;;;;;;6.88;100.00;98961.13;5064147;28;20186;-70
2022/05/08 03:23:09;;;;;;;10.25;5.72;;;;;;;6.85;100.00;98961.13;5063940;28;20028;-70
2022/05/08 03:25:35;;;;;;;7.15;4.70;;;;;;;6.89;100.00;98955.00;5050835;28;20033;-70
2022/05/08 03:28:01;;;;;;;7.47;5.10;;;;;;;6.92;100.00;98956.75;5044976;28;20092;-70
2022/05/08 03:30:28;;;;;;;11.60;6.10;;;;;;;6.92;100.00;98956.75;5061777;28;20335;-70
2022/05/08 03:32:54;;;;;;;7.38;4.82;;;;;;;6.92;100.00;98956.75;5063797;28;20025;-70
2022/05/08 03:35:19;;;;;;;7.32;4.75;;;;;;;6.98;100.00;98959.38;5063534;28;20027;-70
2022/05/08 03:37:44;;;;;;;7.97;4.72;;;;;;;6.96;100.00;98951.50;5063495;28;20198;-70
2022/05/08 03:40:10;;;;;;;14.45;5.82;;;;;;;6.99;100.00;98959.38;5063394;28;20044;-70
2022/05/08 03:42:36;;;;;;;7.85;5.28;;;;;;;7.00;100.00;98955.91;5063717;28;20091;-70
2022/05/08 03:45:01;;;;;;;8.07;5.07;;;;;;;6.87;100.00;98964.63;5063115;28;20024;-70
2022/05/08 03:47:27;;;;;;;8.75;4.95;;;;;;;6.93;100.00;98959.38;5063624;28;20032;-70
2022/05/08 03:49:53;;;;;;;7.78;5.40;;;;;;;6.55;99.22;98964.56;5060526;28;20102;-70
2022/05/08 03:52:18;;;;;;;8.27;5.50;;;;;;;6.43;100.00;98961.06;5049085;28;20031;-70
2022/05/08 03:54:44;;;;;;;11.13;6.10;;;;;;;6.44;100.00;98958.47;5058191;28;20029;-70
2022/05/08 03:57:09;;;;;;;7.90;5.10;;;;;;;6.57;100.00;98960.22;5043565;28;20040;-70
2022/05/08 03:59:35;;;;;;;11.32;6.38;;;;;;;6.52;100.00;98963.72;5052182;28;20103;-70
2022/05/08 04:02:00;;;;;;;9.25;6.13;;;;;;;6.66;100.00;98959.38;5055374;28;20047;-70
2022/05/08 04:04:25;;;;;;;8.85;6.00;;;;;;;6.55;100.00;98961.06;5044527;28;20029;-70
2022/05/08 04:06:51;;;;;;;12.35;5.97;;;;;;;6.59;100.00;98960.22;5043516;28;20029;-70
2022/05/08 04:09:16;;;;;;;13.30;5.60;;;;;;;6.71;100.00;98965.47;5043539;28;20021;-70
2022/05/08 04:11:42;;;;;;;10.10;5.10;;;;;;;6.74;100.00;98962.84;5047295;28;20026;-70
2022/05/08 04:14:07;;;;;;;9.30;5.68;;;;;;;6.75;100.00;98968.97;5051755;28;20033;-70
2022/05/08 04:16:33;;;;;;;9.27;5.40;;;;;;;6.74;99.83;98962.84;5066899;28;20260;-70
2022/05/08 04:18:58;;;;;;;10.50;5.55;;;;;;;6.73;99.92;98966.34;5067035;28;20043;-70
2022/05/08 04:21:24;;;;;;;10.32;5.13;;;;;;;6.72;99.46;98973.31;5066833;28;20033;-70
2022/05/08 04:26:34;;;;;;;8.25;5.53;;;;;;;6.76;98.65;98971.56;5067025;28;20027;-70
2022/05/08 04:29:00;;;;;;;9.00;5.00;;;;;;;6.81;98.71;98968.97;5066923;28;20025;-70
2022/05/08 04:31:26;;;;;;;9.60;4.88;;;;;;;6.85;98.80;98976.81;5059065;28;20265;-70
2022/05/08 04:33:51;;;;;;;8.43;5.72;;;;;;;6.85;98.06;98976.81;5057801;28;20029;-70
2022/05/08 04:36:18;;;;;;;8.45;5.50;;;;;;;6.85;98.66;98982.06;5066279;28;20084;-70
2022/05/08 04:38:44;;;;;;;7.53;5.18;;;;;;;6.97;98.53;98982.06;5066753;28;20044;-70
2022/05/08 04:41:09;;;;;;;8.80;5.40;;;;;;;7.06;98.55;98983.81;5049635;28;20036;-70
2022/05/08 04:43:35;;;;;;;8.10;4.78;;;;;;;7.31;98.30;98983.78;5046840;28;20029;-70
2022/05/08 04:46:00;;;;;;;7.32;4.60;;;;;;;7.54;96.71;98991.63;5045504;28;20049;-70
2022/05/08 04:48:26;;;;;;;11.10;5.57;;;;;;;7.57;95.50;98995.13;5046610;28;20059;-70
2022/05/08 04:50:51;;;;;;;9.45;5.03;;;;;;;7.74;94.73;98995.94;5046619;28;20100;-70
2022/05/08 04:53:16;;;;;;;6.75;4.97;;;;;;;8.11;94.46;98997.59;5046525;28;20067;-70
2022/05/08 04:55:42;;;;;;;9.15;4.63;;;;;;;8.24;92.72;99009.78;5046285;28;20213;-70
2022/05/08 04:58:08;;;;;;;6.35;4.25;;;;;;;8.22;92.50;99005.41;5058653;28;20029;-70
2022/05/08 05:00:34;;;;;;;8.63;4.25;;;;;;;8.45;91.49;99009.69;5056186;28;20056;-70
2022/05/08 05:03:00;;;;;;;6.32;4.45;;;;;;;9.07;89.29;99016.28;5056746;28;20032;-70
2022/05/08 05:05:26;;;;;;;8.52;4.45;;;;;;;9.42;88.62;99009.00;5061738;28;20025;-70
2022/05/08 05:07:51;;;;;;;7.63;4.43;;;;;;;10.06;86.29;99015.38;5046244;28;20031;-70
2022/05/08 05:10:17;;;;;;;8.77;4.35;;;;;;;10.39;83.98;99020.25;5046150;28;20047;-70
2022/05/08 05:12:42;;;;;;;6.85;4.30;;;;;;;10.72;83.93;99014.53;5046245;28;20032;-70
2022/05/08 05:15:08;;;;;;;7.13;4.15;;;;;;;11.07;84.98;99022.78;5046176;28;20023;-70
2022/05/08 05:17:34;;;;;;;5.35;3.60;;;;;;;11.33;83.08;99014.50;5046046;28;20025;-70
2022/05/08 05:20:00;;;;;;;9.02;4.30;;;;;;;11.83;80.10;99023.28;5045958;28;20213;-70
2022/05/08 05:22:25;;;;;;;7.15;4.18;;;;;;;11.98;78.72;99028.28;5045590;28;20028;-70
2022/05/08 05:24:51;;;;;;;7.00;3.95;;;;;;;12.28;76.63;99025.06;5058994;28;20317;-70
2022/05/08 05:27:16;;;;;;;8.40;4.45;;;;;;;12.21;77.06;99031.34;5065896;28;20035;-70
2022/05/08 05:29:42;;;;;;;5.72;3.58;;;;;;;12.77;76.65;99039.00;5064282;28;20217;-70
2022/05/08 05:32:08;;;;;;;6.43;3.83;;;;;;;12.76;76.18;99034.59;5053266;28;20055;-70
2022/05/08 05:34:33;;;;;;;4.90;3.55;;;;;;;12.88;75.59;99036.13;5046019;28;20089;-70
2022/05/08 05:36:59;;;;;;;5.40;3.53;;;;;;;13.35;74.81;99037.69;5054193;28;20032;-70
2022/05/08 05:39:24;;;;;;;5.07;3.58;;;;;;;13.66;73.73;99033.38;5065275;28;20283;-70
2022/05/08 05:41:50;;;;;;;7.82;4.68;;;;;;;13.80;74.15;99031.25;5065336;28;20055;-70
2022/05/08 05:44:16;;;;;;;6.90;4.57;;;;;;;14.08;72.47;99032.28;5065249;28;20029;-70
2022/05/08 05:49:27;;;;;;;5.97;4.40;;;;;;;14.60;73.59;99043.19;5049105;28;20216;-70
2022/05/08 05:51:53;;;;;;;8.95;4.80;;;;;;;15.08;71.67;99049.66;5045346;28;20084;-70
2022/05/08 05:54:21;;;;;;;8.70;4.20;;;;;;;15.37;72.00;99049.66;5045355;28;20032;-70
2022/05/08 05:56:47;;;;;;;6.75;4.80;;;;;;;15.89;70.76;99043.50;5061074;28;20032;-70
2022/05/08 05:59:13;;;;;;;6.10;4.45;;;;;;;16.38;69.83;99049.69;5064996;28;20090;-70
2022/05/08 06:01:38;;;;;;;9.10;4.03;;;;;;;16.81;69.76;99057.84;5048940;28;20029;-70
2022/05/08 06:04:04;;;;;;;7.72;5.28;;;;;;;17.05;70.49;99054.28;5045051;28;20064;-70
2022/05/08 06:06:29;;;;;;;9.65;5.65;;;;;;;17.77;68.58;99054.94;5046889;28;20225;-71
2022/05/08 06:08:54;;;;;;;10.63;6.15;;;;;;;18.13;67.52;99058.75;5065088;28;20204;-71
2022/05/08 06:11:20;;;;;;;9.43;5.95;;;;;;;18.19;67.30;99058.50;5054636;28;20329;-71
2022/05/08 06:13:45;;;;;;;7.88;4.95;;;;;;;18.64;66.21;99067.16;5045003;28;20032;-71
2022/05/08 06:16:11;;;;;;;7.05;5.35;;;;;;;19.14;63.92;99068.34;5046189;28;20304;-71
2022/05/08 06:18:36;;;;;;;11.85;6.10;;;;;;;19.69;62.45;99067.50;5044897;28;20025;-71
2022/05/08 06:21:03;;;;;;;9.68;5.72;;;;;;;19.51;62.81;99079.06;5044862;28;20036;-71
2022/05/08 06:23:28;;;;;;;8.45;5.40;;;;;;;19.78;62.50;99072.41;5044870;28;20305;-71
2022/05/08 06:25:54;;;;;;;8.65;5.88;;;;;;;19.80;61.27;99067.81;5054528;28;20028;-69
2022/05/08 06:28:19;;;;;;;10.23;6.30;;;;;;;20.10;61.20;99071.66;5064777;28;20025;-71
2022/05/08 06:30:48;;;;;;;8.45;5.35;;;;;;;19.95;60.71;99075.09;5051983;28;20049;-70
2022/05/08 06:33:14;;;;;;;8.30;4.57;;;;;;;20.32;60.46;99085.69;5059890;28;20092;-69
2022/05/08 06:35:41;;;;;;;8.25;5.47;;;;;;;20.10;60.64;99074.31;5064328;28;20036;-69
2022/05/08 06:38:10;;;;;;;10.35;5.78;;;;;;;20.44;59.60;99079.69;5064142;28;20224;-70
2022/05/08 06:40:39;;;;;;;8.38;5.03;;;;;;;20.91;59.28;99080.72;5062815;28;20024;-71
2022/05/08 06:43:09;;;;;;;7.07;5.32;;;;;;;21.10;57.27;99080.59;5063855;28;20032;-71
2022/05/08 06:45:35;;;;;;;7.70;4.75;;;;;;;21.32;57.60;99083.00;5053779;28;20209;-71
2022/05/08 06:48:00;;;;;;;7.93;4.38;;;;;;;21.40;57.24;99078.06;5044423;28;20021;-71
2022/05/08 06:50:26;;;;;;;10.52;5.25;;;;;;;21.45;57.57;99070.66;5045503;28;20017;-71
2022/05/08 06:52:51;;;;;;;6.68;5.00;;;;;;;21.11;56.88;99067.16;5044803;28;20317;-71
2022/05/08 06:55:18;;;;;;;7.63;5.10;;;;;;;21.17;55.85;99061.47;5064069;28;20340;-71
2022/05/08 06:57:43;;;;;;;6.57;4.63;;;;;;;21.37;56.26;99072.88;5064125;28;20017;-71
2022/05/08 07:02:53;;;;;;;14.20;5.32;;;;;;;21.62;56.04;99063.38;5043939;28;20103;-71
2022/05/08 07:05:19;;;;;;;7.82;5.00;;;;;;;21.33;55.60;99073.03;5044184;28;20033;-71
2022/05/08 07:07:44;;;;;;;7.32;4.85;;;;;;;22.08;55.86;99075.03;5044374;28;20027;-71
2022/05/08 07:10:10;;;;;;;8.65;4.78;;;;;;;22.10;54.36;99078.47;5045207;28;20019;-71
2022/05/08 07:12:38;;;;;;;7.07;4.28;;;;;;;22.01;54.61;99084.38;5058495;28;20025;-71
2022/05/08 07:15:05;;;;;;;8.35;4.88;;;;;;;22.24;53.23;99083.91;5063968;28;20304;-71
2022/05/08 07:17:31;;;;;;;8.73;4.55;;;;;;;21.92;53.97;99071.53;5064188;28;20028;-71
2022/05/08 07:19:56;;;;;;;8.45;5.05;;;;;;;22.13;53.38;99080.97;5052029;28;20443;-71
2022/05/08 07:22:24;;;;;;;7.28;4.40;;;;;;;21.68;55.11;99081.78;5043924;28;20025;-71
2022/05/08 07:24:50;;;;;;;8.85;4.38;;;;;;;21.56;54.56;99078.94;5045087;28;20045;-71
2022/05/08 07:27:15;;;;;;;9.40;4.28;;;;;;;21.94;54.44;99088.34;5044067;28;20025;-71
2022/05/08 07:29:42;;;;;;;6.85;4.15;;;;;;;21.91;54.79;99091.22;5045050;28;20124;-70
2022/05/08 07:32:07;;;;;;;7.40;4.32;;;;;;;22.03;54.26;99090.50;5044077;28;20040;-71
2022/05/08 07:37:17;;;;;;;6.55;3.75;;;;;;;22.76;53.97;99093.25;5063724;28;20036;-71
2022/05/08 07:39:42;;;;;;;5.55;3.70;;;;;;;22.54;52.85;99082.97;5063443;28;20021;-71
2022/05/08 07:42:08;;;;;;;6.00;4.00;;;;;;;22.90;53.28;99077.13;5063415;28;20343;-71
2022/05/08 07:44:33;;;;;;;6.03;3.75;;;;;;;23.30;52.80;99095.22;5051209;28;20036;-71
2022/05/08 07:47:00;;;;;;;6.90;4.20;;;;;;;23.36;51.40;99089.47;5048884;28;20029;-71
2022/05/08 07:49:26;;;;;;;6.13;4.00;;;;;;;23.44;51.02;99094.34;5049102;28;20040;-71
2022/05/08 07:51:52;;;;;;;7.50;3.95;;;;;;;23.02;51.35;99095.19;5058981;28;20310;-71
2022/05/08 07:54:17;;;;;;;8.35;4.30;;;;;;;23.02;51.74;99105.91;5047655;28;20028;-71
2022/05/08 07:56:43;;;;;;;8.00;3.47;;;;;;;23.01;53.11;99101.53;5061742;28;20052;-71
2022/05/08 07:59:09;;;;;;;7.72;4.00;;;;;;;23.50;51.09;99107.41;5063932;28;20055;-70
2022/05/08 08:01:34;;;;;;;8.13;4.07;;;;;;;23.89;51.88;99112.88;5066279;28;20143;-70
2022/05/08 08:04:00;;;;;;;6.80;3.78;;;;;;;23.89;49.17;99099.44;5065565;28;20061;-71
2022/05/08 08:06:26;;;;;;;4.35;3.35;;;;;;;23.87;50.36;99107.59;5067418;28;20029;-71
2022/05/08 08:08:51;;;;;;;5.75;4.00;;;;;;;23.45;50.05;99104.13;5067137;28;20331;-71
2022/05/08 08:11:16;;;;;;;5.50;3.72;;;;;;;23.83;49.69;99111.44;5067390;28;20040;-71
2022/05/08 08:13:42;;;;;;;7.50;4.22;;;;;;;23.39;49.59;99116.13;5065727;28;20025;-70
2022/05/08 08:16:08;;;;;;;5.25;3.25;;;;;;;23.21;51.86;99106.50;5049506;28;20025;-71
2022/05/08 08:18:34;;;;;;;7.28;3.60;;;;;;;23.52;50.41;99117.06;5047154;28;20021;-71
2022/05/08 08:20:59;;;;;;;5.88;3.83;;;;;;;24.15;49.21;99107.53;5064909;28;20043;-71
2022/05/08 08:23:27;;;;;;;6.13;3.70;;;;;;;24.43;49.36;99118.13;5065459;28;20021;-71
2022/05/08 08:25:53;;;;;;;5.13;3.35;;;;;;;24.31;48.86;99113.63;5054122;28;20021;-71
2022/05/08 08:28:19;;;;;;;5.45;3.85;;;;;;;24.50;49.03;99119.47;5058381;28;20033;-72
2022/05/08 08:30:44;;;;;;;5.63;3.47;;;;;;;24.88;48.00;99123.13;5065051;28;20028;-72
2022/05/08 08:33:09;;;;;;;7.25;4.35;;;;;;;25.10;47.76;99127.88;5060301;28;20021;-72
2022/05/08 08:35:36;;;;;;;5.95;3.80;;;;;;;24.54;47.60;99126.38;5058449;28;20067;-71
2022/05/08 08:38:01;;;;;;;6.53;3.53;;;;;;;24.21;47.66;99108.94;5045880;28;20092;-71
2022/05/08 08:40:27;;;;;;;5.25;3.40;;;;;;;25.21;47.27;99123.44;5046897;28;20060;-71
2022/05/08 08:42:52;;;;;;;8.52;3.45;;;;;;;25.18;47.03;99131.75;5045841;28;20029;-71
2022/05/08 08:48:07;;;;;;;5.50;2.97;;;;;;;25.07;47.37;99126.25;5057895;28;20085;-71
2022/05/08 08:50:33;;;;;;;3.88;2.92;;;;;;;25.29;46.31;99123.78;5045658;28;20317;-71
2022/05/08 08:53:01;;;;;;;3.92;3.13;;;;;;;24.95;48.29;99129.81;5055404;28;20024;-71
2022/05/08 08:55:27;;;;;;;4.32;3.13;;;;;;;24.82;47.04;99123.56;5065519;28;20351;-71
2022/05/08 08:57:53;;;;;;;35.10;22.00;;;;;;;25.47;47.18;99134.25;5063917;28;20040;-71
2022/05/08 09:00:21;;;;;;;3.92;3.05;;;;;;;25.31;47.78;99129.06;5065381;28;20036;-71
2022/05/08 09:02:47;;;;;;;5.43;3.13;;;;;;;25.83;47.43;99128.88;5065313;28;20021;-71
2022/05/08 09:05:13;;;;;;;5.47;2.85;;;;;;;26.02;44.86;99129.28;5055278;28;20045;-71
2022/05/08 09:07:45;;;;;;;4.60;3.28;;;;;;;25.02;46.73;99123.00;5045623;28;20017;-71
2022/05/08 09:10:21;;;;;;;6.15;3.20;;;;;;;25.36;46.57;99126.03;5045604;28;20028;-71
2022/05/08 09:12:52;;;;;;;4.65;2.88;;;;;;;25.25;47.06;99130.34;5044901;28;20017;-71
2022/05/08 09:15:25;;;;;;;8.40;3.20;;;;;;;26.04;45.50;99130.88;5046564;28;20032;-71
2022/05/08 09:17:53;;;;;;;8.73;3.50;;;;;;;25.85;44.33;99126.94;5063520;28;20029;-71
2022/05/08 09:20:51;;;;;;;5.97;3.38;;;;;;;25.82;45.12;99125.34;5059449;28;20067;-71
2022/05/08 09:23:23;;;;;;;5.22;3.22;;;;;;;25.48;44.44;99130.56;5047886;28;20096;-71
2022/05/08 09:25:59;;;;;;;3.95;3.03;;;;;;;25.58;46.75;99126.22;5046202;28;20025;-71
2022/05/08 09:28:42;;;;;;;5.53;3.67;;;;;;;25.14;47.38;99118.59;5045762;28;20341;-71
2022/05/08 09:31:09;;;;;;;3.95;3.22;;;;;;;25.36;46.76;99115.25;5063510;28;20054;-71
2022/05/08 09:33:42;;;;;;;6.03;2.90;;;;;;;26.22;45.13;99128.63;5058190;28;20025;-72
2022/05/08 09:36:10;;;;;;;7.35;3.15;;;;;;;25.64;45.04;99125.78;5050877;28;20024;-72
2022/05/08 09:38:44;;;;;;;3.65;2.75;;;;;;;25.90;46.33;99124.75;5049335;28;20022;-72
2022/05/08 09:41:10;;;;;;;6.82;3.35;;;;;;;26.00;44.81;99112.34;5049739;28;20025;-72
2022/05/08 09:43:36;;;;;;;6.10;2.90;;;;;;;26.28;45.06;99104.75;5062740;28;20331;-72
2022/05/08 09:46:04;;;;;;;4.32;2.72;;;;;;;26.55;44.65;99110.75;5064016;28;20049;-72
2022/05/08 09:48:31;;;;;;;5.88;2.70;;;;;;;26.74;44.42;99121.06;5062617;28;20342;-72
2022/05/08 09:50:59;;;;;;;4.75;3.10;;;;;;;26.10;44.93;99108.00;5067023;28;20028;-72
2022/05/08 09:53:25;;;;;;;6.78;3.03;;;;;;;26.62;44.52;99122.00;5063542;28;20040;-72
2022/05/08 09:55:55;;;;;;;5.05;2.70;;;;;;;26.51;44.61;99108.44;5060668;28;20039;-71
2022/05/08 09:58:21;;;;;;;5.43;2.70;;;;;;;26.48;44.98;99101.41;5062525;28;20210;-71
2022/05/08 10:00:47;;;;;;;4.00;2.30;;;;;;;26.96;44.42;99107.59;5058461;28;20045;-71
2022/05/08 10:03:15;;;;;;;5.15;2.55;;;;;;;26.60;44.28;99103.16;5063953;28;20036;-71
2022/05/08 10:05:42;;;;;;;5.30;2.63;;;;;;;26.66;43.83;99099.16;5062379;28;20073;-71
2022/05/08 10:08:08;;;;;;;3.25;2.40;;;;;;;26.53;44.76;99107.31;5064691;28;20043;-71
2022/05/08 10:16:51;;;;;;;4.93;2.40;;;;;;;26.75;44.06;99087.66;5059388;28;20351;-71
2022/05/08 10:21:57;;;;;;;3.25;2.45;;;;;;;26.10;44.67;99087.25;5061978;28;20044;-71
2022/05/08 10:24:39;;;;;;;4.43;2.55;;;;;;;26.54;44.40;99082.03;5066262;28;20029;-71
2022/05/08 10:27:08;;;;;;;6.25;2.47;;;;;;;26.16;43.80;99083.25;5076890;28;20096;-71
2022/05/08 10:29:34;;;;;;;3.25;2.28;;;;;;;26.66;42.19;99096.47;5074902;28;20020;-71
2022/05/08 10:31:59;;;;;;;3.63;2.70;;;;;;;25.90;44.88;99073.50;5060662;28;20119;-71
2022/05/08 10:34:36;;;;;;;3.85;2.35;;;;;;;26.02;44.13;99088.81;5060619;28;20025;-71
2022/05/08 10:37:11;;;;;;;3.65;2.47;;;;;;;25.43;45.56;99081.53;5066871;28;20067;-71
2022/05/08 10:39:42;;;;;;;4.47;2.78;;;;;;;25.56;46.27;99075.13;5060644;28;20028;-71
2022/05/08 10:42:29;;;;;;;3.25;2.30;;;;;;;26.11;43.37;99093.53;5064152;28;20232;-71
2022/05/08 10:45:01;;;;;;;3.47;2.47;;;;;;;26.12;45.72;99073.66;5045118;28;20031;-71
2022/05/08 10:47:42;;;;;;;;;;;;;;;26.56;43.64;99076.53;5062350;28;20117;-71
2022/05/08 10:50:15;;;;;;;3.00;2.43;;;;;;;25.97;43.76;99070.25;5056093;28;19983;-71
2022/05/08 10:52:45;;;;;;;4.45;2.55;;;;;;;24.88;44.25;99077.34;5065991;28;20031;-71
2022/05/08 10:55:14;;;;;;;4.20;2.40;;;;;;;24.50;46.38;99081.78;5063816;28;20071;-71
2022/05/08 10:57:41;;;;;;;7.22;2.53;;;;;;;25.34;45.12;99084.88;5056556;28;20293;-71
2022/05/08 11:00:09;;;;;;;4.35;2.30;;;;;;;25.81;44.92;99076.91;5054939;28;20217;-71
2022/05/08 11:02:57;;;;;;;3.00;2.28;;;;;;;25.88;42.78;99086.25;5050479;28;20027;-71
2022/05/08 11:05:29;;;;;;;4.00;2.42;;;;;;;25.97;42.90;99074.78;5043192;28;20025;-71
2022/05/08 11:08:00;;;;;;;4.03;2.83;;;;;;;25.61;48.13;99062.16;5043211;28;20037;-71
2022/05/08 11:10:30;;;;;;;4.35;2.53;;;;;;;24.20;46.24;99065.03;5058980;28;20027;-71
2022/05/08 11:13:02;;;;;;;5.32;2.30;;;;;;;24.22;45.97;99071.19;5063119;28;20108;-71
2022/05/08 11:15:36;;;;;;;3.78;2.00;;;;;;;24.15;46.53;99069.00;5058419;28;20032;-71
2022/05/08 11:18:09;;;;;;;3.85;2.97;;;;;;;23.82;48.18;99074.75;5042904;28;20060;-71
2022/05/08 11:20:43;;;;;;;6.05;2.38;;;;;;;22.87;49.47;99077.34;5042656;28;20029;-71
2022/05/08 11:23:13;;;;;;;5.50;2.58;;;;;;;22.74;50.36;99066.50;5043054;28;20091;-71
2022/05/08 11:25:40;;;;;;;3.80;2.63;;;;;;;22.62;49.98;99063.72;5043001;28;20048;-71
2022/05/08 11:28:14;;;;;;;3.55;2.53;;;;;;;22.58;50.45;99067.53;5043002;28;20087;-71
2022/05/08 11:30:40;;;;;;;3.78;2.35;;;;;;;22.45;50.04;99066.50;5054175;28;20021;-71
2022/05/08 11:36:04;;;;;;;3.60;2.53;;;;;;;23.02;51.06;99061.16;5062590;28;20052;-71
2022/05/08 11:38:50;;;;;;;3.60;2.50;;;;;;;22.91;49.62;99062.78;5043452;28;20031;-71
2022/05/08 11:41:21;;;;;;;3.05;2.28;;;;;;;22.96;49.63;99068.72;5043912;28;20329;-71
2022/05/08 11:43:54;;;;;;;3.00;2.45;;;;;;;22.76;51.76;99061.91;5048830;28;20029;-71
2022/05/08 11:46:33;;;;;;;8.50;2.83;;;;;;;22.80;49.76;99062.56;5043061;28;20372;-71
2022/05/08 11:48:58;;;;;;;4.63;2.45;;;;;;;22.92;49.68;99056.44;5055986;28;20080;-71
2022/05/08 11:51:24;;;;;;;4.30;2.85;;;;;;;22.76;50.07;99058.34;5060519;28;20051;-71
2022/05/08 11:53:51;;;;;;;4.55;2.50;;;;;;;22.80;52.35;99055.38;5049708;28;20036;-71
2022/05/08 11:56:21;;;;;;;2.90;2.33;;;;;;;22.75;53.14;99045.91;5042391;28;20029;-71
2022/05/08 11:58:47;;;;;;;7.55;2.50;;;;;;;22.48;52.59;99050.22;5042925;28;20274;-71
2022/05/08 12:01:32;;;;;;;3.08;2.35;;;;;;;22.89;48.66;99051.28;5042963;28;20207;-71
2022/05/08 12:04:22;;;;;;;2.50;2.22;;;;;;;22.75;48.92;99048.59;5042703;28;20038;-71
2022/05/08 12:06:59;;;;;;;4.00;2.45;;;;;;;23.03;48.73;99049.44;5050363;28;20320;-71
2022/05/08 12:09:50;;;;;;;4.57;2.30;;;;;;;23.11;46.53;99033.72;5061603;28;20017;-71
2022/05/08 12:12:19;;;;;;;3.30;2.60;;;;;;;23.04;46.83;99044.94;5059046;28;20286;-71